Doris Moran — WRU2125 — position and weather

sailwx.info

Track history (hours):
 
Tides and Currents Weather Stations Pressure Air Temp Water Temp Dewpoint Dewpoint Depression Visibility Wind Speed Wind Dir Waves Ship Positions

Doris Moran

Owner: MORAN TOWING CORPORATION, New Canaan, CT. More information available from US FCC via Universal Licensing System and Coast Guard Vessel Documentation Center.

Last reported at 2017-Mar-29 02:32 UTC. Time now 2017-Mar-29 03:10 UTC.
Position N 40°38' W 074°08'.

Length 36 m; draft 5.3 m.

Type: Tug. MMSI: 366939790.

Date/timePositionNaut miles runAvg speedWind from/ knotsBaromVisibWave heightAir tempDewpointWater temp
2017-Mar-29 02:32N 40°38' W 074°08'3 3.4
2017-Mar-29 01:31N 40°42' W 074°09'3 3.5
2017-Mar-29 00:33N 40°39' W 074°08'6 6.2
2017-Mar-28 23:32N 40°41' W 074°00'6 5.5
2017-Mar-28 22:22N 40°38' W 074°08'0 0.0
2017-Mar-28 21:19N 40°38' W 074°08'0 0.0
2017-Mar-28 20:31N 40°38' W 074°08'0 0.0
2017-Mar-28 19:31N 40°38' W 074°08'0 0.0
2017-Mar-28 18:22N 40°38' W 074°08'0 0.0
2017-Mar-28 17:28N 40°38' W 074°08'0 0.0
2017-Mar-28 16:28N 40°38' W 074°08'0 0.0
2017-Mar-28 15:28N 40°38' W 074°08'0 0.0
2017-Mar-28 13:31N 40°38' W 074°08'0 0.0
2017-Mar-28 11:25N 40°38' W 074°08'0 0.0
2017-Mar-28 10:31N 40°38' W 074°08'0 0.0
2017-Mar-28 09:34N 40°38' W 074°08'0 0.0
2017-Mar-28 08:31N 40°38' W 074°08'0 0.0
2017-Mar-28 07:31N 40°38' W 074°08'0 0.0
2017-Mar-28 06:31N 40°38' W 074°08'0 0.0
2017-Mar-28 05:31N 40°38' W 074°08'0 0.0
2017-Mar-28 04:30N 40°38' W 074°08'0 0.0
2017-Mar-28 03:33N 40°38' W 074°08'0 0.0
2017-Mar-28 02:31N 40°38' W 074°08'0 0.0
2017-Mar-28 01:25N 40°38' W 074°08'0 0.0
2017-Mar-28 00:31N 40°38' W 074°08'0 0.0
2017-Mar-27 23:19N 40°38' W 074°08'0 0.0
2017-Mar-27 22:33N 40°38' W 074°08'0 0.0
2017-Mar-27 21:25N 40°38' W 074°08'0 0.0
2017-Mar-27 20:25N 40°38' W 074°08'0 0.0
2017-Mar-27 19:34N 40°38' W 074°08'2 2.1
2017-Mar-27 18:33N 40°41' W 074°08'2 2.1
2017-Mar-27 17:31N 40°38' W 074°08'0 0.0
2017-Mar-27 16:28N 40°38' W 074°08'0 0.0
2017-Mar-27 15:28N 40°38' W 074°08'0 0.0
2017-Mar-27 14:31N 40°38' W 074°08'0 0.0
2017-Mar-27 13:25N 40°38' W 074°08'0 0.0
2017-Mar-27 12:31N 40°38' W 074°08'0 0.0
2017-Mar-27 11:31N 40°38' W 074°08'0 0.0
2017-Mar-27 10:31N 40°38' W 074°08'0 0.0
2017-Mar-27 09:31N 40°38' W 074°08'0 0.0
2017-Mar-27 08:31N 40°38' W 074°08'0 0.0
2017-Mar-27 07:31N 40°38' W 074°08'0 0.0
2017-Mar-27 06:31N 40°38' W 074°08'0 0.0
2017-Mar-27 05:31N 40°38' W 074°08'0 0.0
2017-Mar-27 04:31N 40°38' W 074°08'0 0.0
2017-Mar-27 03:31N 40°38' W 074°08'0 0.0
2017-Mar-27 02:31N 40°38' W 074°08'0 0.0
2017-Mar-27 01:31N 40°38' W 074°08'1 0.7
2017-Mar-27 00:33N 40°38' W 074°09'2 2.3
2017-Mar-26 23:31N 40°41' W 074°09'0 0.2
2017-Mar-26 22:30N 40°41' W 074°09'1 1.0
2017-Mar-26 21:31N 40°42' W 074°09'0 0.0
2017-Mar-26 20:31N 40°42' W 074°09'0 0.0
2017-Mar-26 19:31N 40°42' W 074°09'0 0.0
2017-Mar-26 18:31N 40°42' W 074°09'3 3.2
2017-Mar-26 17:33N 40°39' W 074°09'7 6.9
2017-Mar-26 16:33N 40°41' W 074°01'6 6.0
2017-Mar-26 15:33N 40°38' W 074°08'0 0.0
2017-Mar-26 14:33N 40°38' W 074°08'0 0.0
2017-Mar-26 13:30N 40°38' W 074°08'0 0.0
2017-Mar-26 12:33N 40°38' W 074°08'0 0.0
2017-Mar-26 11:30N 40°38' W 074°08'0 0.0
2017-Mar-26 10:33N 40°38' W 074°08'0 0.0
2017-Mar-26 09:33N 40°38' W 074°08'0 0.0
2017-Mar-26 08:33N 40°38' W 074°08'0 0.0
2017-Mar-26 07:33N 40°38' W 074°08'0 0.0
2017-Mar-26 06:33N 40°38' W 074°08'0 0.0
2017-Mar-26 05:33N 40°38' W 074°08'0 0.0
2017-Mar-26 04:33N 40°38' W 074°08'0 0.0
2017-Mar-26 03:33N 40°38' W 074°08'0 0.0
2017-Mar-26 02:33N 40°38' W 074°08'0 0.0
2017-Mar-26 01:33N 40°38' W 074°08'0 0.0
2017-Mar-26 00:30N 40°38' W 074°08'0 0.0
2017-Mar-25 23:33N 40°38' W 074°08'0 0.0
2017-Mar-25 22:33N 40°38' W 074°08'0 0.0
2017-Mar-25 21:34N 40°38' W 074°08'0 0.4
2017-Mar-25 20:29N 40°39' W 074°07'0 0.5
2017-Mar-25 19:32N 40°38' W 074°08'0 0.0
2017-Mar-25 18:23N 40°38' W 074°08'0 0.0
2017-Mar-25 17:29N 40°38' W 074°08'0 0.0
2017-Mar-25 16:32N 40°38' W 074°08'0 0.0
2017-Mar-25 15:29N 40°38' W 074°08'0 0.0
2017-Mar-25 14:32N 40°38' W 074°08'0 0.0
2017-Mar-25 13:32N 40°38' W 074°08'0 0.0
2017-Mar-25 12:23N 40°38' W 074°08'0 0.0
2017-Mar-25 11:32N 40°38' W 074°08'0 0.0
2017-Mar-25 10:29N 40°38' W 074°08'0 0.4
2017-Mar-25 09:33N 40°39' W 074°08'4 4.2
2017-Mar-25 08:33N 40°38' W 074°03'4 1.6
2017-Mar-25 06:08N 40°38' W 074°08'0 0.0
2017-Mar-25 04:29N 40°38' W 074°08'0 0.0
2017-Mar-25 02:32N 40°38' W 074°08'0 0.0
2017-Mar-25 01:17N 40°38' W 074°08'0 0.0
2017-Mar-24 23:08N 40°38' W 074°08'0 0.4
2017-Mar-24 22:33N 40°39' W 074°08'0 0.2
2017-Mar-24 21:19N 40°38' W 074°08'2 2.5
2017-Mar-24 20:34N 40°40' W 074°08'1 0.6
2017-Mar-24 19:33N 40°41' W 074°09'1 0.7
2017-Mar-24 18:33N 40°40' W 074°08'2 1.8
2017-Mar-24 17:31N 40°38' W 074°08'0 0.0
2017-Mar-24 16:28N 40°38' W 074°08'0 0.0
2017-Mar-24 14:16N 40°38' W 074°08'0 0.0
2017-Mar-24 13:31N 40°38' W 074°08'0 0.0
2017-Mar-24 12:16N 40°38' W 074°08'0 0.0
2017-Mar-24 10:31N 40°38' W 074°08'0 0.0
2017-Mar-24 09:31N 40°38' W 074°08'0 0.0
2017-Mar-24 08:28N 40°38' W 074°08'0 0.0
2017-Mar-24 07:28N 40°38' W 074°08'0 0.0
2017-Mar-24 06:31N 40°38' W 074°08'0 0.0
2017-Mar-24 05:31N 40°38' W 074°08'0 0.0
2017-Mar-24 04:31N 40°38' W 074°08'0 0.0
2017-Mar-24 03:31N 40°38' W 074°08'0 0.0
2017-Mar-24 02:31N 40°38' W 074°08'0 0.0
2017-Mar-24 01:31N 40°38' W 074°08'0 0.0
2017-Mar-24 00:25N 40°38' W 074°08'0 0.0
2017-Mar-23 22:10N 40°38' W 074°08'0 0.0
2017-Mar-23 18:13N 40°38' W 074°08'0 0.0
2017-Mar-23 14:19N 40°38' W 074°08'0 0.0
2017-Mar-23 13:25N 40°38' W 074°08'0 0.0
2017-Mar-23 12:31N 40°38' W 074°08'0 0.0
2017-Mar-23 11:22N 40°38' W 074°08'0 0.0
2017-Mar-23 10:28N 40°38' W 074°08'0 0.0
2017-Mar-23 09:28N 40°38' W 074°08'0 0.0
2017-Mar-23 08:16N 40°38' W 074°08'0 0.0
2017-Mar-23 07:28N 40°38' W 074°08'0 0.0
2017-Mar-23 06:29N 40°38' W 074°08'0 0.0
2017-Mar-23 04:12N 40°38' W 074°08'0 0.0
2017-Mar-23 03:32N 40°38' W 074°08'3 3.5
2017-Mar-23 02:33N 40°42' W 074°09'3 3.5
2017-Mar-23 01:34N 40°39' W 074°06'5 5.2
2017-Mar-23 00:33N 40°41' W 074°00'5 5.0
2017-Mar-22 23:34N 40°37' W 074°03'0 0.1
2017-Mar-22 22:33N 40°37' W 074°03'1 1.1
2017-Mar-22 21:33N 40°38' W 074°03'2 2.1
2017-Mar-22 20:33N 40°40' W 074°04'1 1.2
2017-Mar-22 19:33N 40°39' W 074°05'2 1.8
2017-Mar-22 18:28N 40°38' W 074°08'0 0.0
2017-Mar-22 17:31N 40°38' W 074°08'0 0.0
2017-Mar-22 16:31N 40°38' W 074°08'0 0.0
2017-Mar-22 15:28N 40°38' W 074°08'0 0.0
2017-Mar-22 14:13N 40°38' W 074°08'0 0.0
2017-Mar-22 13:31N 40°38' W 074°08'0 0.0
2017-Mar-22 12:31N 40°38' W 074°08'0 0.0
2017-Mar-22 11:31N 40°38' W 074°08'0 0.0
2017-Mar-22 10:31N 40°38' W 074°08'0 0.1
2017-Mar-22 09:33N 40°39' W 074°08'4 3.5
2017-Mar-22 08:33N 40°38' W 074°03'3 3.2
2017-Mar-22 07:27N 40°38' W 074°08'0 0.0
2017-Mar-22 06:09N 40°38' W 074°08'0 0.0
2017-Mar-22 05:33N 40°38' W 074°08'0 0.0
2017-Mar-22 04:03N 40°38' W 074°08'0 0.0
2017-Mar-22 03:24N 40°38' W 074°08'0 0.0
2017-Mar-22 02:33N 40°38' W 074°08'0 0.0
2017-Mar-22 01:33N 40°38' W 074°08'0 0.0
2017-Mar-22 00:33N 40°38' W 074°08'0 0.0
2017-Mar-21 23:33N 40°38' W 074°08'0 0.0
2017-Mar-21 22:27N 40°38' W 074°08'0 0.0
2017-Mar-21 20:30N 40°38' W 074°08'0 0.0
2017-Mar-21 19:33N 40°38' W 074°08'3 3.3
2017-Mar-21 18:34N 40°39' W 074°03'3 3.1
2017-Mar-21 17:29N 40°38' W 074°08'0 0.0
2017-Mar-21 16:32N 40°38' W 074°08'0 0.0
2017-Mar-21 15:29N 40°38' W 074°08'0 0.0
2017-Mar-21 14:26N 40°38' W 074°08'0 0.0
2017-Mar-21 13:32N 40°38' W 074°08'0 0.0
2017-Mar-21 12:29N 40°38' W 074°08'0 0.0
2017-Mar-21 11:32N 40°38' W 074°08'0 0.0
2017-Mar-21 10:32N 40°38' W 074°08'0 0.0
2017-Mar-21 09:32N 40°38' W 074°08'0 0.0
2017-Mar-21 08:32N 40°38' W 074°08'0 0.0
2017-Mar-21 07:32N 40°38' W 074°08'0 0.0
2017-Mar-21 06:32N 40°38' W 074°08'0 0.0
2017-Mar-21 05:29N 40°38' W 074°08'0 0.0
2017-Mar-21 04:29N 40°38' W 074°08'0 0.0
2017-Mar-21 03:31N 40°38' W 074°08'2 2.4
2017-Mar-21 02:33N 40°41' W 074°09'1 1.1
2017-Mar-21 01:33N 40°40' W 074°08'1 1.3
2017-Mar-21 00:33N 40°38' W 074°08'0 0.0
2017-Mar-20 23:33N 40°38' W 074°08'0 0.0
2017-Mar-20 22:33N 40°38' W 074°08'3 3.3
2017-Mar-20 21:34N 40°40' W 074°04'0 0.4
2017-Mar-20 20:29N 40°40' W 074°04'2 2.3
2017-Mar-20 19:33N 40°39' W 074°07'1 0.8
2017-Mar-20 18:26N 40°38' W 074°08'0 0.0
2017-Mar-20 17:23N 40°38' W 074°08'0 0.0
2017-Mar-20 16:26N 40°38' W 074°08'0 0.0
2017-Mar-20 15:32N 40°38' W 074°08'3 2.8
2017-Mar-20 14:33N 40°39' W 074°04'1 0.8
2017-Mar-20 13:34N 40°39' W 074°05'2 2.0
2017-Mar-20 12:32N 40°38' W 074°08'0 0.0
2017-Mar-20 11:29N 40°38' W 074°08'0 0.0
2017-Mar-20 10:23N 40°38' W 074°08'0 0.0
2017-Mar-20 09:32N 40°38' W 074°08'0 0.0
2017-Mar-20 08:32N 40°38' W 074°08'0 0.0
2017-Mar-20 07:32N 40°38' W 074°08'0 0.0
2017-Mar-20 06:32N 40°38' W 074°08'0 0.0
2017-Mar-20 05:32N 40°38' W 074°08'0 0.0
2017-Mar-20 04:32N 40°38' W 074°08'0 0.0
2017-Mar-20 03:32N 40°38' W 074°08'0 0.0
2017-Mar-20 02:32N 40°38' W 074°08'0 0.0
2017-Mar-20 01:32N 40°38' W 074°08'0 0.0
2017-Mar-20 00:32N 40°38' W 074°08'0 0.0
2017-Mar-19 23:32N 40°38' W 074°08'0 0.0
2017-Mar-19 22:32N 40°38' W 074°08'0 0.0
2017-Mar-19 21:32N 40°38' W 074°08'0 0.0
2017-Mar-19 20:32N 40°38' W 074°08'0 0.0
2017-Mar-19 19:32N 40°38' W 074°08'0 0.0
2017-Mar-19 18:32N 40°38' W 074°08'0 0.0
2017-Mar-19 17:32N 40°38' W 074°08'0 0.0
2017-Mar-19 16:29N 40°38' W 074°08'0 0.0
2017-Mar-19 15:23N 40°38' W 074°08'0 0.0
2017-Mar-19 14:32N 40°38' W 074°08'0 0.0
2017-Mar-19 13:29N 40°38' W 074°08'0 0.0
2017-Mar-19 12:29N 40°38' W 074°08'0 0.0
2017-Mar-19 11:32N 40°38' W 074°08'3 3.1
2017-Mar-19 10:33N 40°39' W 074°04'1 1.0
2017-Mar-19 09:33N 40°40' W 074°04'3 2.9
2017-Mar-19 08:31N 40°38' W 074°08'0 0.0
2017-Mar-19 07:31N 40°38' W 074°08'0 0.0
2017-Mar-19 06:31N 40°38' W 074°08'0 0.0
2017-Mar-19 05:31N 40°38' W 074°08'0 0.0
2017-Mar-19 04:25N 40°38' W 074°08'0 0.0
2017-Mar-19 03:31N 40°38' W 074°08'  
Track history (hours):
 
Tides and Currents Weather Stations Pressure Air Temp Water Temp Dewpoint Dewpoint Depression Visibility Wind Speed Wind Dir Waves Ship Positions

Doris Moran

Owner: MORAN TOWING CORPORATION, New Canaan, CT. More information available from US FCC via Universal Licensing System and Coast Guard Vessel Documentation Center.

Last reported at 2017-Mar-29 02:32 UTC. Time now 2017-Mar-29 03:10 UTC.
Position N 40°38' W 074°08'.

Length 36 m; draft 5.3 m.

Type: Tug. MMSI: 366939790.

Date/timePositionNaut miles runAvg speedWind from/ knotsBaromVisibWave heightAir tempDewpointWater temp
2017-Mar-29 02:32N 40°38' W 074°08'3 3.4
2017-Mar-29 01:31N 40°42' W 074°09'3 3.5
2017-Mar-29 00:33N 40°39' W 074°08'6 6.2
2017-Mar-28 23:32N 40°41' W 074°00'6 5.5
2017-Mar-28 22:22N 40°38' W 074°08'0 0.0
2017-Mar-28 21:19N 40°38' W 074°08'0 0.0
2017-Mar-28 20:31N 40°38' W 074°08'0 0.0
2017-Mar-28 19:31N 40°38' W 074°08'0 0.0
2017-Mar-28 18:22N 40°38' W 074°08'0 0.0
2017-Mar-28 17:28N 40°38' W 074°08'0 0.0
2017-Mar-28 16:28N 40°38' W 074°08'0 0.0
2017-Mar-28 15:28N 40°38' W 074°08'0 0.0
2017-Mar-28 13:31N 40°38' W 074°08'0 0.0
2017-Mar-28 11:25N 40°38' W 074°08'0 0.0
2017-Mar-28 10:31N 40°38' W 074°08'0 0.0
2017-Mar-28 09:34N 40°38' W 074°08'0 0.0
2017-Mar-28 08:31N 40°38' W 074°08'0 0.0
2017-Mar-28 07:31N 40°38' W 074°08'0 0.0
2017-Mar-28 06:31N 40°38' W 074°08'0 0.0
2017-Mar-28 05:31N 40°38' W 074°08'0 0.0
2017-Mar-28 04:30N 40°38' W 074°08'0 0.0
2017-Mar-28 03:33N 40°38' W 074°08'0 0.0
2017-Mar-28 02:31N 40°38' W 074°08'0 0.0
2017-Mar-28 01:25N 40°38' W 074°08'0 0.0
2017-Mar-28 00:31N 40°38' W 074°08'0 0.0
2017-Mar-27 23:19N 40°38' W 074°08'0 0.0
2017-Mar-27 22:33N 40°38' W 074°08'0 0.0
2017-Mar-27 21:25N 40°38' W 074°08'0 0.0
2017-Mar-27 20:25N 40°38' W 074°08'0 0.0
2017-Mar-27 19:34N 40°38' W 074°08'2 2.1
2017-Mar-27 18:33N 40°41' W 074°08'2 2.1
2017-Mar-27 17:31N 40°38' W 074°08'0 0.0
2017-Mar-27 16:28N 40°38' W 074°08'0 0.0
2017-Mar-27 15:28N 40°38' W 074°08'0 0.0
2017-Mar-27 14:31N 40°38' W 074°08'0 0.0
2017-Mar-27 13:25N 40°38' W 074°08'0 0.0
2017-Mar-27 12:31N 40°38' W 074°08'0 0.0
2017-Mar-27 11:31N 40°38' W 074°08'0 0.0
2017-Mar-27 10:31N 40°38' W 074°08'0 0.0
2017-Mar-27 09:31N 40°38' W 074°08'0 0.0
2017-Mar-27 08:31N 40°38' W 074°08'0 0.0
2017-Mar-27 07:31N 40°38' W 074°08'0 0.0
2017-Mar-27 06:31N 40°38' W 074°08'0 0.0
2017-Mar-27 05:31N 40°38' W 074°08'0 0.0
2017-Mar-27 04:31N 40°38' W 074°08'0 0.0
2017-Mar-27 03:31N 40°38' W 074°08'0 0.0
2017-Mar-27 02:31N 40°38' W 074°08'0 0.0
2017-Mar-27 01:31N 40°38' W 074°08'1 0.7
2017-Mar-27 00:33N 40°38' W 074°09'2 2.3
2017-Mar-26 23:31N 40°41' W 074°09'0 0.2
2017-Mar-26 22:30N 40°41' W 074°09'1 1.0
2017-Mar-26 21:31N 40°42' W 074°09'0 0.0
2017-Mar-26 20:31N 40°42' W 074°09'0 0.0
2017-Mar-26 19:31N 40°42' W 074°09'0 0.0
2017-Mar-26 18:31N 40°42' W 074°09'3 3.2
2017-Mar-26 17:33N 40°39' W 074°09'7 6.9
2017-Mar-26 16:33N 40°41' W 074°01'6 6.0
2017-Mar-26 15:33N 40°38' W 074°08'0 0.0
2017-Mar-26 14:33N 40°38' W 074°08'0 0.0
2017-Mar-26 13:30N 40°38' W 074°08'0 0.0
2017-Mar-26 12:33N 40°38' W 074°08'0 0.0
2017-Mar-26 11:30N 40°38' W 074°08'0 0.0
2017-Mar-26 10:33N 40°38' W 074°08'0 0.0
2017-Mar-26 09:33N 40°38' W 074°08'0 0.0
2017-Mar-26 08:33N 40°38' W 074°08'0 0.0
2017-Mar-26 07:33N 40°38' W 074°08'0 0.0
2017-Mar-26 06:33N 40°38' W 074°08'0 0.0
2017-Mar-26 05:33N 40°38' W 074°08'0 0.0
2017-Mar-26 04:33N 40°38' W 074°08'0 0.0
2017-Mar-26 03:33N 40°38' W 074°08'0 0.0
2017-Mar-26 02:33N 40°38' W 074°08'0 0.0
2017-Mar-26 01:33N 40°38' W 074°08'0 0.0
2017-Mar-26 00:30N 40°38' W 074°08'0 0.0
2017-Mar-25 23:33N 40°38' W 074°08'0 0.0
2017-Mar-25 22:33N 40°38' W 074°08'0 0.0
2017-Mar-25 21:34N 40°38' W 074°08'0 0.4
2017-Mar-25 20:29N 40°39' W 074°07'0 0.5
2017-Mar-25 19:32N 40°38' W 074°08'0 0.0
2017-Mar-25 18:23N 40°38' W 074°08'0 0.0
2017-Mar-25 17:29N 40°38' W 074°08'0 0.0
2017-Mar-25 16:32N 40°38' W 074°08'0 0.0
2017-Mar-25 15:29N 40°38' W 074°08'0 0.0
2017-Mar-25 14:32N 40°38' W 074°08'0 0.0
2017-Mar-25 13:32N 40°38' W 074°08'0 0.0
2017-Mar-25 12:23N 40°38' W 074°08'0 0.0
2017-Mar-25 11:32N 40°38' W 074°08'0 0.0
2017-Mar-25 10:29N 40°38' W 074°08'0 0.4
2017-Mar-25 09:33N 40°39' W 074°08'4 4.2
2017-Mar-25 08:33N 40°38' W 074°03'4 1.6
2017-Mar-25 06:08N 40°38' W 074°08'0 0.0
2017-Mar-25 04:29N 40°38' W 074°08'0 0.0
2017-Mar-25 02:32N 40°38' W 074°08'0 0.0
2017-Mar-25 01:17N 40°38' W 074°08'0 0.0
2017-Mar-24 23:08N 40°38' W 074°08'0 0.4
2017-Mar-24 22:33N 40°39' W 074°08'0 0.2
2017-Mar-24 21:19N 40°38' W 074°08'2 2.5
2017-Mar-24 20:34N 40°40' W 074°08'1 0.6
2017-Mar-24 19:33N 40°41' W 074°09'1 0.7
2017-Mar-24 18:33N 40°40' W 074°08'2 1.8
2017-Mar-24 17:31N 40°38' W 074°08'0 0.0
2017-Mar-24 16:28N 40°38' W 074°08'0 0.0
2017-Mar-24 14:16N 40°38' W 074°08'0 0.0
2017-Mar-24 13:31N 40°38' W 074°08'0 0.0
2017-Mar-24 12:16N 40°38' W 074°08'0 0.0
2017-Mar-24 10:31N 40°38' W 074°08'0 0.0
2017-Mar-24 09:31N 40°38' W 074°08'0 0.0
2017-Mar-24 08:28N 40°38' W 074°08'0 0.0
2017-Mar-24 07:28N 40°38' W 074°08'0 0.0
2017-Mar-24 06:31N 40°38' W 074°08'0 0.0
2017-Mar-24 05:31N 40°38' W 074°08'0 0.0
2017-Mar-24 04:31N 40°38' W 074°08'0 0.0
2017-Mar-24 03:31N 40°38' W 074°08'0 0.0
2017-Mar-24 02:31N 40°38' W 074°08'0 0.0
2017-Mar-24 01:31N 40°38' W 074°08'0 0.0
2017-Mar-24 00:25N 40°38' W 074°08'0 0.0
2017-Mar-23 22:10N 40°38' W 074°08'0 0.0
2017-Mar-23 18:13N 40°38' W 074°08'0 0.0
2017-Mar-23 14:19N 40°38' W 074°08'0 0.0
2017-Mar-23 13:25N 40°38' W 074°08'0 0.0
2017-Mar-23 12:31N 40°38' W 074°08'0 0.0
2017-Mar-23 11:22N 40°38' W 074°08'0 0.0
2017-Mar-23 10:28N 40°38' W 074°08'0 0.0
2017-Mar-23 09:28N 40°38' W 074°08'0 0.0
2017-Mar-23 08:16N 40°38' W 074°08'0 0.0
2017-Mar-23 07:28N 40°38' W 074°08'0 0.0
2017-Mar-23 06:29N 40°38' W 074°08'0 0.0
2017-Mar-23 04:12N 40°38' W 074°08'0 0.0
2017-Mar-23 03:32N 40°38' W 074°08'3 3.5
2017-Mar-23 02:33N 40°42' W 074°09'3 3.5
2017-Mar-23 01:34N 40°39' W 074°06'5 5.2
2017-Mar-23 00:33N 40°41' W 074°00'5 5.0
2017-Mar-22 23:34N 40°37' W 074°03'0 0.1
2017-Mar-22 22:33N 40°37' W 074°03'1 1.1
2017-Mar-22 21:33N 40°38' W 074°03'2 2.1
2017-Mar-22 20:33N 40°40' W 074°04'1 1.2
2017-Mar-22 19:33N 40°39' W 074°05'2 1.8
2017-Mar-22 18:28N 40°38' W 074°08'0 0.0
2017-Mar-22 17:31N 40°38' W 074°08'0 0.0
2017-Mar-22 16:31N 40°38' W 074°08'0 0.0
2017-Mar-22 15:28N 40°38' W 074°08'0 0.0
2017-Mar-22 14:13N 40°38' W 074°08'0 0.0
2017-Mar-22 13:31N 40°38' W 074°08'0 0.0
2017-Mar-22 12:31N 40°38' W 074°08'0 0.0
2017-Mar-22 11:31N 40°38' W 074°08'0 0.0
2017-Mar-22 10:31N 40°38' W 074°08'0 0.1
2017-Mar-22 09:33N 40°39' W 074°08'4 3.5
2017-Mar-22 08:33N 40°38' W 074°03'3 3.2
2017-Mar-22 07:27N 40°38' W 074°08'0 0.0
2017-Mar-22 06:09N 40°38' W 074°08'0 0.0
2017-Mar-22 05:33N 40°38' W 074°08'0 0.0
2017-Mar-22 04:03N 40°38' W 074°08'0 0.0
2017-Mar-22 03:24N 40°38' W 074°08'0 0.0
2017-Mar-22 02:33N 40°38' W 074°08'0 0.0
2017-Mar-22 01:33N 40°38' W 074°08'0 0.0
2017-Mar-22 00:33N 40°38' W 074°08'0 0.0
2017-Mar-21 23:33N 40°38' W 074°08'0 0.0
2017-Mar-21 22:27N 40°38' W 074°08'0 0.0
2017-Mar-21 20:30N 40°38' W 074°08'0 0.0
2017-Mar-21 19:33N 40°38' W 074°08'3 3.3
2017-Mar-21 18:34N 40°39' W 074°03'3 3.1
2017-Mar-21 17:29N 40°38' W 074°08'0 0.0
2017-Mar-21 16:32N 40°38' W 074°08'0 0.0
2017-Mar-21 15:29N 40°38' W 074°08'0 0.0
2017-Mar-21 14:26N 40°38' W 074°08'0 0.0
2017-Mar-21 13:32N 40°38' W 074°08'0 0.0
2017-Mar-21 12:29N 40°38' W 074°08'0 0.0
2017-Mar-21 11:32N 40°38' W 074°08'0 0.0
2017-Mar-21 10:32N 40°38' W 074°08'0 0.0
2017-Mar-21 09:32N 40°38' W 074°08'0 0.0
2017-Mar-21 08:32N 40°38' W 074°08'0 0.0
2017-Mar-21 07:32N 40°38' W 074°08'0 0.0
2017-Mar-21 06:32N 40°38' W 074°08'0 0.0
2017-Mar-21 05:29N 40°38' W 074°08'0 0.0
2017-Mar-21 04:29N 40°38' W 074°08'0 0.0
2017-Mar-21 03:31N 40°38' W 074°08'2 2.4
2017-Mar-21 02:33N 40°41' W 074°09'1 1.1
2017-Mar-21 01:33N 40°40' W 074°08'1 1.3
2017-Mar-21 00:33N 40°38' W 074°08'0 0.0
2017-Mar-20 23:33N 40°38' W 074°08'0 0.0
2017-Mar-20 22:33N 40°38' W 074°08'3 3.3
2017-Mar-20 21:34N 40°40' W 074°04'0 0.4
2017-Mar-20 20:29N 40°40' W 074°04'2 2.3
2017-Mar-20 19:33N 40°39' W 074°07'1 0.8
2017-Mar-20 18:26N 40°38' W 074°08'0 0.0
2017-Mar-20 17:23N 40°38' W 074°08'0 0.0
2017-Mar-20 16:26N 40°38' W 074°08'0 0.0
2017-Mar-20 15:32N 40°38' W 074°08'3 2.8
2017-Mar-20 14:33N 40°39' W 074°04'1 0.8
2017-Mar-20 13:34N 40°39' W 074°05'2 2.0
2017-Mar-20 12:32N 40°38' W 074°08'0 0.0
2017-Mar-20 11:29N 40°38' W 074°08'0 0.0
2017-Mar-20 10:23N 40°38' W 074°08'0 0.0
2017-Mar-20 09:32N 40°38' W 074°08'0 0.0
2017-Mar-20 08:32N 40°38' W 074°08'0 0.0
2017-Mar-20 07:32N 40°38' W 074°08'0 0.0
2017-Mar-20 06:32N 40°38' W 074°08'0 0.0
2017-Mar-20 05:32N 40°38' W 074°08'0 0.0
2017-Mar-20 04:32N 40°38' W 074°08'0 0.0
2017-Mar-20 03:32N 40°38' W 074°08'0 0.0
2017-Mar-20 02:32N 40°38' W 074°08'0 0.0
2017-Mar-20 01:32N 40°38' W 074°08'0 0.0
2017-Mar-20 00:32N 40°38' W 074°08'0 0.0
2017-Mar-19 23:32N 40°38' W 074°08'0 0.0
2017-Mar-19 22:32N 40°38' W 074°08'0 0.0
2017-Mar-19 21:32N 40°38' W 074°08'0 0.0
2017-Mar-19 20:32N 40°38' W 074°08'0 0.0
2017-Mar-19 19:32N 40°38' W 074°08'0 0.0
2017-Mar-19 18:32N 40°38' W 074°08'0 0.0
2017-Mar-19 17:32N 40°38' W 074°08'0 0.0
2017-Mar-19 16:29N 40°38' W 074°08'0 0.0
2017-Mar-19 15:23N 40°38' W 074°08'0 0.0
2017-Mar-19 14:32N 40°38' W 074°08'0 0.0
2017-Mar-19 13:29N 40°38' W 074°08'0 0.0
2017-Mar-19 12:29N 40°38' W 074°08'0 0.0
2017-Mar-19 11:32N 40°38' W 074°08'3 3.1
2017-Mar-19 10:33N 40°39' W 074°04'1 1.0
2017-Mar-19 09:33N 40°40' W 074°04'3 2.9
2017-Mar-19 08:31N 40°38' W 074°08'0 0.0
2017-Mar-19 07:31N 40°38' W 074°08'0 0.0
2017-Mar-19 06:31N 40°38' W 074°08'0 0.0
2017-Mar-19 05:31N 40°38' W 074°08'0 0.0
2017-Mar-19 04:25N 40°38' W 074°08'0 0.0
2017-Mar-19 03:31N 40°38' W 074°08'  

Dump ship's entire track history